Kent, Ohio
Current Conditions -  °F | °C
As of 6:00 PM on Friday 28 Nov 2014 (Local Time) from KPOV Reporting Station
Overcast Overcast  
Wind Chill: -6°   Ceiling: 6000
Heat Index: -3°   Visibility: 10mi
Dew Point: -9°   Wind: 5mph
Humidity: 65%   Direction: 180°S
Pressure: 30.2"   Gusts: NA
Location:  41.15°N, 81.36°W
Report Text: KPOV 282300Z AUTO 18004KT 10SM SCT029 BKN060 OVC090 M03/M09 A3020 RMK AO2 T10331090
Loading
Personal Weather Stations






























Interactive Weather Map New forecast layout! Learn more

10-Day Weather Forecast

Advertisements
Track Severe Weather on mobile